sensor_id;sensor_type;location;lat;lon;timestamp;pressure;altitude;pressure_sealevel;temperature;humidity
39265;BME280;42646;51.910;7.724;2022-10-26T00:01:09;100946.91;;;8.72;100.00
39265;BME280;42646;51.910;7.724;2022-10-26T00:03:38;100946.16;;;8.70;100.00
39265;BME280;42646;51.910;7.724;2022-10-26T00:06:07;100939.31;;;8.68;100.00
39265;BME280;42646;51.910;7.724;2022-10-26T00:08:36;100927.97;;;8.66;100.00
39265;BME280;42646;51.910;7.724;2022-10-26T00:11:05;100929.88;;;8.64;100.00
39265;BME280;42646;51.910;7.724;2022-10-26T00:13:34;100930.72;;;8.64;100.00
39265;BME280;42646;51.910;7.724;2022-10-26T00:16:07;100939.66;;;8.63;100.00
39265;BME280;42646;51.910;7.724;2022-10-26T00:18:35;100936.28;;;8.61;100.00
39265;BME280;42646;51.910;7.724;2022-10-26T00:21:03;100938.19;;;8.59;100.00
39265;BME280;42646;51.910;7.724;2022-10-26T00:23:31;100929.41;;;8.59;100.00
39265;BME280;42646;51.910;7.724;2022-10-26T00:25:59;100933.84;;;8.58;100.00
39265;BME280;42646;51.910;7.724;2022-10-26T00:28:28;100930.50;;;8.56;100.00
39265;BME280;42646;51.910;7.724;2022-10-26T00:30:59;100932.31;;;8.55;100.00
39265;BME280;42646;51.910;7.724;2022-10-26T00:33:27;100933.28;;;8.54;100.00
39265;BME280;42646;51.910;7.724;2022-10-26T00:35:56;100933.28;;;8.54;100.00
39265;BME280;42646;51.910;7.724;2022-10-26T00:38:23;100923.59;;;8.53;100.00
39265;BME280;42646;51.910;7.724;2022-10-26T00:40:51;100927.13;;;8.54;100.00
39265;BME280;42646;51.910;7.724;2022-10-26T00:43:36;100928.06;;;8.53;100.00
39265;BME280;42646;51.910;7.724;2022-10-26T00:46:07;100922.75;;;8.53;100.00
39265;BME280;42646;51.910;7.724;2022-10-26T00:48:40;100928.06;;;8.53;100.00
39265;BME280;42646;51.910;7.724;2022-10-26T00:51:12;100925.41;;;8.53;100.00
39265;BME280;42646;51.910;7.724;2022-10-26T00:53:42;100928.06;;;8.53;100.00
39265;BME280;42646;51.910;7.724;2022-10-26T00:56:10;100927.97;;;8.54;100.00
39265;BME280;42646;51.910;7.724;2022-10-26T00:58:40;100925.31;;;8.54;100.00
39265;BME280;42646;51.910;7.724;2022-10-26T01:01:08;100918.19;;;8.55;100.00
39265;BME280;42646;51.910;7.724;2022-10-26T01:03:37;100927.84;;;8.56;100.00
39265;BME280;42646;51.910;7.724;2022-10-26T01:06:05;100911.81;;;8.57;100.00
39265;BME280;42646;51.910;7.724;2022-10-26T01:08:33;100909.03;;;8.59;100.00
39265;BME280;42646;51.910;7.724;2022-10-26T01:11:01;100907.97;;;8.62;100.00
39265;BME280;42646;51.910;7.724;2022-10-26T01:13:32;100913.00;;;8.65;100.00
39265;BME280;42646;51.910;7.724;2022-10-26T01:16:22;100910.25;;;8.66;100.00
39265;BME280;42646;51.910;7.724;2022-10-26T01:18:56;100904.81;;;8.68;100.00
39265;BME280;42646;51.910;7.724;2022-10-26T01:21:47;100897.72;;;8.68;100.00
39265;BME280;42646;51.910;7.724;2022-10-26T01:27:26;100894.69;;;8.73;100.00
39265;BME280;42646;51.910;7.724;2022-10-26T01:30:15;100893.59;;;8.75;100.00
39265;BME280;42646;51.910;7.724;2022-10-26T01:32:46;100892.63;;;8.76;100.00
39265;BME280;42646;51.910;7.724;2022-10-26T01:35:21;100895.19;;;8.78;100.00
39265;BME280;42646;51.910;7.724;2022-10-26T01:37:56;100894.09;;;8.80;100.00
39265;BME280;42646;51.910;7.724;2022-10-26T01:40:28;100883.47;;;8.80;100.00
39265;BME280;42646;51.910;7.724;2022-10-26T01:43:01;100887.69;;;8.83;100.00
39265;BME280;42646;51.910;7.724;2022-10-26T01:45:32;100881.53;;;8.82;100.00
39265;BME280;42646;51.910;7.724;2022-10-26T01:48:02;100883.13;;;8.85;100.00
39265;BME280;42646;51.910;7.724;2022-10-26T01:50:30;100876.00;;;8.86;100.00
39265;BME280;42646;51.910;7.724;2022-10-26T01:52:58;100885.50;;;8.88;100.00
39265;BME280;42646;51.910;7.724;2022-10-26T01:55:43;100871.28;;;8.89;100.00
39265;BME280;42646;51.910;7.724;2022-10-26T01:58:23;100873.00;;;8.90;100.00
39265;BME280;42646;51.910;7.724;2022-10-26T02:01:00;100868.53;;;8.91;100.00
39265;BME280;42646;51.910;7.724;2022-10-26T02:03:37;100863.09;;;8.92;100.00
39265;BME280;42646;51.910;7.724;2022-10-26T02:06:14;100860.44;;;8.92;100.00
39265;BME280;42646;51.910;7.724;2022-10-26T02:08:55;100855.00;;;8.94;100.00
39265;BME280;42646;51.910;7.724;2022-10-26T02:11:31;100859.25;;;8.96;100.00
39265;BME280;42646;51.910;7.724;2022-10-26T02:14:10;100855.75;;;8.96;100.00
39265;BME280;42646;51.910;7.724;2022-10-26T02:16:52;100851.16;;;8.98;100.00
39265;BME280;42646;51.910;7.724;2022-10-26T02:19:30;100850.19;;;8.99;100.00
39265;BME280;42646;51.910;7.724;2022-10-26T02:22:03;100844.88;;;8.99;100.00
39265;BME280;42646;51.910;7.724;2022-10-26T02:24:33;100845.72;;;8.99;100.00
39265;BME280;42646;51.910;7.724;2022-10-26T02:27:04;100842.91;;;9.01;100.00
39265;BME280;42646;51.910;7.724;2022-10-26T02:29:34;100841.97;;;9.02;100.00
39265;BME280;42646;51.910;7.724;2022-10-26T02:32:04;100846.31;;;9.03;100.00
39265;BME280;42646;51.910;7.724;2022-10-26T02:34:36;100844.50;;;9.03;100.00
39265;BME280;42646;51.910;7.724;2022-10-26T02:37:06;100835.56;;;9.04;100.00
39265;BME280;42646;51.910;7.724;2022-10-26T02:39:34;100839.78;;;9.07;100.00
39265;BME280;42646;51.910;7.724;2022-10-26T02:42:06;100836.19;;;9.08;100.00
39265;BME280;42646;51.910;7.724;2022-10-26T02:44:36;100830.75;;;9.09;100.00
39265;BME280;42646;51.910;7.724;2022-10-26T02:47:08;100822.66;;;9.11;100.00
39265;BME280;42646;51.910;7.724;2022-10-26T02:49:36;100825.06;;;9.14;100.00
39265;BME280;42646;51.910;7.724;2022-10-26T02:52:10;100818.78;;;9.15;100.00
39265;BME280;42646;51.910;7.724;2022-10-26T02:54:48;100821.31;;;9.17;100.00
39265;BME280;42646;51.910;7.724;2022-10-26T02:57:19;100822.00;;;9.19;100.00
39265;BME280;42646;51.910;7.724;2022-10-26T02:59:49;100825.41;;;9.21;100.00
39265;BME280;42646;51.910;7.724;2022-10-26T03:02:19;100814.66;;;9.22;100.00
39265;BME280;42646;51.910;7.724;2022-10-26T03:04:48;100815.34;;;9.24;100.00
39265;BME280;42646;51.910;7.724;2022-10-26T03:07:19;100807.28;;;9.26;100.00
39265;BME280;42646;51.910;7.724;2022-10-26T03:09:47;100814.16;;;9.28;100.00
39265;BME280;42646;51.910;7.724;2022-10-26T03:12:15;100814.00;;;9.30;100.00
39265;BME280;42646;51.910;7.724;2022-10-26T03:14:43;100820.91;;;9.32;100.00
39265;BME280;42646;51.910;7.724;2022-10-26T03:17:10;100809.31;;;9.33;100.00
39265;BME280;42646;51.910;7.724;2022-10-26T03:19:39;100808.19;;;9.36;100.00
39265;BME280;42646;51.910;7.724;2022-10-26T03:22:07;100802.78;;;9.38;100.00
39265;BME280;42646;51.910;7.724;2022-10-26T03:24:34;100810.47;;;9.41;100.00
39265;BME280;42646;51.910;7.724;2022-10-26T03:27:02;100810.34;;;9.42;100.00
39265;BME280;42646;51.910;7.724;2022-10-26T03:29:30;100808.44;;;9.44;100.00
39265;BME280;42646;51.910;7.724;2022-10-26T03:31:57;100809.97;;;9.47;100.00
39265;BME280;42646;51.910;7.724;2022-10-26T03:34:25;100812.50;;;9.48;100.00
39265;BME280;42646;51.910;7.724;2022-10-26T03:36:54;100807.91;;;9.50;100.00
39265;BME280;42646;51.910;7.724;2022-10-26T03:39:21;100807.63;;;9.53;100.00
39265;BME280;42646;51.910;7.724;2022-10-26T03:41:49;100808.38;;;9.55;100.00
39265;BME280;42646;51.910;7.724;2022-10-26T03:44:16;100804.59;;;9.58;100.00
39265;BME280;42646;51.910;7.724;2022-10-26T03:46:44;100798.31;;;9.59;100.00
39265;BME280;42646;51.910;7.724;2022-10-26T03:49:12;100804.38;;;9.61;100.00
39265;BME280;42646;51.910;7.724;2022-10-26T03:51:39;100806.88;;;9.62;100.00
39265;BME280;42646;51.910;7.724;2022-10-26T03:54:08;100801.44;;;9.64;100.00
39265;BME280;42646;51.910;7.724;2022-10-26T03:56:36;100814.59;;;9.66;100.00
39265;BME280;42646;51.910;7.724;2022-10-26T03:59:04;100805.66;;;9.67;100.00
39265;BME280;42646;51.910;7.724;2022-10-26T04:01:31;100803.84;;;9.67;100.00
39265;BME280;42646;51.910;7.724;2022-10-26T04:03:59;100809.88;;;9.69;100.00
39265;BME280;42646;51.910;7.724;2022-10-26T04:06:27;100803.56;;;9.70;100.00
39265;BME280;42646;51.910;7.724;2022-10-26T04:08:54;100800.78;;;9.72;100.00
39265;BME280;42646;51.910;7.724;2022-10-26T04:11:28;100804.28;;;9.72;100.00
39265;BME280;42646;51.910;7.724;2022-10-26T04:13:56;100803.34;;;9.73;100.00
39265;BME280;42646;51.910;7.724;2022-10-26T04:16:25;100802.34;;;9.74;100.00
39265;BME280;42646;51.910;7.724;2022-10-26T04:18:58;100805.00;;;9.74;100.00
39265;BME280;42646;51.910;7.724;2022-10-26T04:21:26;100804.03;;;9.75;100.00
39265;BME280;42646;51.910;7.724;2022-10-26T04:23:54;100803.06;;;9.76;100.00
39265;BME280;42646;51.910;7.724;2022-10-26T04:26:21;100794.25;;;9.76;100.00
39265;BME280;42646;51.910;7.724;2022-10-26T04:28:50;100794.94;;;9.78;100.00
39265;BME280;42646;51.910;7.724;2022-10-26T04:31:18;100782.53;;;9.78;100.00
39265;BME280;42646;51.910;7.724;2022-10-26T04:33:45;100781.66;;;9.78;100.00
39265;BME280;42646;51.910;7.724;2022-10-26T04:36:13;100792.28;;;9.78;100.00
39265;BME280;42646;51.910;7.724;2022-10-26T04:38:41;100796.78;;;9.77;100.00
39265;BME280;42646;51.910;7.724;2022-10-26T04:41:08;100789.63;;;9.78;100.00
39265;BME280;42646;51.910;7.724;2022-10-26T04:43:36;100792.44;;;9.76;100.00
39265;BME280;42646;51.910;7.724;2022-10-26T04:46:05;100791.47;;;9.77;100.00
39265;BME280;42646;51.910;7.724;2022-10-26T04:48:32;100795.94;;;9.77;100.00
39265;BME280;42646;51.910;7.724;2022-10-26T04:51:00;100789.78;;;9.76;100.00
39265;BME280;42646;51.910;7.724;2022-10-26T04:53:28;100786.13;;;9.77;100.00
39265;BME280;42646;51.910;7.724;2022-10-26T04:55:55;100798.47;;;9.78;100.00
39265;BME280;42646;51.910;7.724;2022-10-26T04:58:24;100794.94;;;9.78;100.00
39265;BME280;42646;51.910;7.724;2022-10-26T05:00:51;100801.00;;;9.80;100.00
39265;BME280;42646;51.910;7.724;2022-10-26T05:03:20;100788.56;;;9.80;100.00
39265;BME280;42646;51.910;7.724;2022-10-26T05:05:48;100787.56;;;9.81;100.00
39265;BME280;42646;51.910;7.724;2022-10-26T05:08:16;100795.53;;;9.81;100.00
39265;BME280;42646;51.910;7.724;2022-10-26T05:10:47;100794.72;;;9.81;100.00
39265;BME280;42646;51.910;7.724;2022-10-26T05:13:15;100800.03;;;9.81;100.00
39265;BME280;42646;51.910;7.724;2022-10-26T05:15:43;100792.06;;;9.81;100.00
39265;BME280;42646;51.910;7.724;2022-10-26T05:18:11;100796.53;;;9.80;100.00
39265;BME280;42646;51.910;7.724;2022-10-26T05:20:40;100798.34;;;9.80;100.00
39265;BME280;42646;51.910;7.724;2022-10-26T05:23:10;100801.84;;;9.80;100.00
39265;BME280;42646;51.910;7.724;2022-10-26T05:25:37;100804.50;;;9.80;100.00
39265;BME280;42646;51.910;7.724;2022-10-26T05:28:08;100796.38;;;9.82;100.00
39265;BME280;42646;51.910;7.724;2022-10-26T05:30:39;100807.72;;;9.84;100.00
39265;BME280;42646;51.910;7.724;2022-10-26T05:33:08;100796.97;;;9.85;100.00
39265;BME280;42646;51.910;7.724;2022-10-26T05:35:36;100789.84;;;9.86;100.00
39265;BME280;42646;51.910;7.724;2022-10-26T05:38:09;100793.22;;;9.88;100.00
39265;BME280;42646;51.910;7.724;2022-10-26T05:40:37;100798.38;;;9.89;100.00
39265;BME280;42646;51.910;7.724;2022-10-26T05:43:04;100798.28;;;9.91;100.00
39265;BME280;42646;51.910;7.724;2022-10-26T05:45:32;100792.13;;;9.90;100.00
39265;BME280;42646;51.910;7.724;2022-10-26T05:48:00;100799.97;;;9.92;100.00
39265;BME280;42646;51.910;7.724;2022-10-26T05:50:28;100803.44;;;9.93;100.00
39265;BME280;42646;51.910;7.724;2022-10-26T05:52:56;100807.94;;;9.92;100.00
39265;BME280;42646;51.910;7.724;2022-10-26T05:55:26;100812.41;;;9.92;100.00
39265;BME280;42646;51.910;7.724;2022-10-26T05:57:54;100820.25;;;9.93;100.00
39265;BME280;42646;51.910;7.724;2022-10-26T06:00:23;100819.41;;;9.93;100.00
39265;BME280;42646;51.910;7.724;2022-10-26T06:03:05;100821.91;;;9.94;100.00
39265;BME280;42646;51.910;7.724;2022-10-26T06:05:37;100827.09;;;9.96;100.00
39265;BME280;42646;51.910;7.724;2022-10-26T06:08:09;100810.06;;;9.98;100.00
39265;BME280;42646;51.910;7.724;2022-10-26T06:10:39;100819.56;;;10.01;100.00
39265;BME280;42646;51.910;7.724;2022-10-26T06:13:07;100818.50;;;10.03;100.00
39265;BME280;42646;51.910;7.724;2022-10-26T06:15:39;100817.50;;;10.04;100.00
39265;BME280;42646;51.910;7.724;2022-10-26T06:18:14;100816.41;;;10.07;100.00
39265;BME280;42646;51.910;7.724;2022-10-26T06:20:54;100817.13;;;10.09;100.00
39265;BME280;42646;51.910;7.724;2022-10-26T06:23:38;100823.16;;;10.11;100.00
39265;BME280;42646;51.910;7.724;2022-10-26T06:26:20;100812.50;;;10.11;100.00
39265;BME280;42646;51.910;7.724;2022-10-26T06:28:57;100822.03;;;10.13;100.00
39265;BME280;42646;51.910;7.724;2022-10-26T06:31:26;100825.41;;;10.15;100.00
39265;BME280;42646;51.910;7.724;2022-10-26T06:33:57;100826.25;;;10.16;100.00
39265;BME280;42646;51.910;7.724;2022-10-26T06:36:27;100818.84;;;10.20;100.00
39265;BME280;42646;51.910;7.724;2022-10-26T06:38:59;100816.06;;;10.21;100.00
39265;BME280;42646;51.910;7.724;2022-10-26T06:41:31;100819.47;;;10.23;100.00
39265;BME280;42646;51.910;7.724;2022-10-26T06:44:00;100817.50;;;10.25;100.00
39265;BME280;42646;51.910;7.724;2022-10-26T06:46:34;100816.56;;;10.26;100.00
39265;BME280;42646;51.910;7.724;2022-10-26T06:49:09;100815.44;;;10.29;100.00
39265;BME280;42646;51.910;7.724;2022-10-26T06:51:44;100817.13;;;10.30;100.00
39265;BME280;42646;51.910;7.724;2022-10-26T06:54:18;100820.50;;;10.32;100.00
39265;BME280;42646;51.910;7.724;2022-10-26T06:56:51;100817.69;;;10.33;100.00
39265;BME280;42646;51.910;7.724;2022-10-26T06:59:30;100817.41;;;10.36;100.00
39265;BME280;42646;51.910;7.724;2022-10-26T07:01:59;100820.81;;;10.38;100.00
39265;BME280;42646;51.910;7.724;2022-10-26T07:04:31;100825.84;;;10.41;100.00
39265;BME280;42646;51.910;7.724;2022-10-26T07:06:59;100819.28;;;10.46;100.00
39265;BME280;42646;51.910;7.724;2022-10-26T07:09:27;100820.59;;;10.51;100.00
39265;BME280;42646;51.910;7.724;2022-10-26T07:11:56;100826.47;;;10.55;100.00
39265;BME280;42646;51.910;7.724;2022-10-26T07:14:23;100832.38;;;10.58;100.00
39265;BME280;42646;51.910;7.724;2022-10-26T07:16:51;100831.13;;;10.62;100.00
39265;BME280;42646;51.910;7.724;2022-10-26T07:19:19;100836.03;;;10.67;100.00
39265;BME280;42646;51.910;7.724;2022-10-26T07:21:47;100835.63;;;10.72;100.00
39265;BME280;42646;51.910;7.724;2022-10-26T07:24:15;100828.09;;;10.77;100.00
39265;BME280;42646;51.910;7.724;2022-10-26T07:26:42;100828.53;;;10.82;100.00
39265;BME280;42646;51.910;7.724;2022-10-26T07:29:11;100828.97;;;10.87;100.00
39265;BME280;42646;51.910;7.724;2022-10-26T07:31:39;100830.25;;;10.92;100.00
39265;BME280;42646;51.910;7.724;2022-10-26T07:34:07;100828.97;;;10.96;100.00
39265;BME280;42646;51.910;7.724;2022-10-26T07:36:34;100833.88;;;11.01;100.00
39265;BME280;42646;51.910;7.724;2022-10-26T07:39:03;100839.66;;;11.06;100.00
39265;BME280;42646;51.910;7.724;2022-10-26T07:41:31;100842.75;;;11.11;100.00
39265;BME280;42646;51.910;7.724;2022-10-26T07:43:59;100844.03;;;11.17;100.00
39265;BME280;42646;51.910;7.724;2022-10-26T07:46:28;100829.47;;;11.21;100.00
39265;BME280;42646;51.910;7.724;2022-10-26T07:48:55;100837.84;;;11.26;100.00
39265;BME280;42646;51.910;7.724;2022-10-26T07:51:23;100835.50;;;11.33;100.00
39265;BME280;42646;51.910;7.724;2022-10-26T07:53:51;100839.56;;;11.37;100.00
39265;BME280;42646;51.910;7.724;2022-10-26T07:56:19;100841.81;;;11.41;100.00
39265;BME280;42646;51.910;7.724;2022-10-26T07:58:46;100840.41;;;11.47;100.00
39265;BME280;42646;51.910;7.724;2022-10-26T08:01:14;100840.84;;;11.52;100.00
39265;BME280;42646;51.910;7.724;2022-10-26T08:03:43;100837.63;;;11.58;100.00
39265;BME280;42646;51.910;7.724;2022-10-26T08:06:11;100839.88;;;11.63;100.00
39265;BME280;42646;51.910;7.724;2022-10-26T08:08:39;100838.47;;;11.68;100.00
39265;BME280;42646;51.910;7.724;2022-10-26T08:11:13;100836.19;;;11.73;100.00
39265;BME280;42646;51.910;7.724;2022-10-26T08:13:41;100840.88;;;11.81;100.00
39265;BME280;42646;51.910;7.724;2022-10-26T08:16:09;100841.97;;;11.88;100.00
39265;BME280;42646;51.910;7.724;2022-10-26T08:18:36;100843.91;;;11.96;100.00
39265;BME280;42646;51.910;7.724;2022-10-26T08:21:06;100844.19;;;12.02;100.00
39265;BME280;42646;51.910;7.724;2022-10-26T08:23:41;100825.34;;;12.14;100.00
39265;BME280;42646;51.910;7.724;2022-10-26T08:26:09;100833.34;;;12.23;100.00
39265;BME280;42646;51.910;7.724;2022-10-26T08:28:37;100826.28;;;12.32;100.00
39265;BME280;42646;51.910;7.724;2022-10-26T08:31:05;100831.59;;;12.42;100.00
39265;BME280;42646;51.910;7.724;2022-10-26T08:33:33;100829.03;;;12.50;100.00
39265;BME280;42646;51.910;7.724;2022-10-26T08:36:03;100824.81;;;12.57;100.00
39265;BME280;42646;51.910;7.724;2022-10-26T08:38:32;100827.56;;;12.65;100.00
39265;BME280;42646;51.910;7.724;2022-10-26T08:41:05;100823.31;;;12.72;100.00
39265;BME280;42646;51.910;7.724;2022-10-26T08:43:38;100822.72;;;12.78;100.00
39265;BME280;42646;51.910;7.724;2022-10-26T08:46:12;100819.31;;;12.86;100.00
39265;BME280;42646;51.910;7.724;2022-10-26T08:48:43;100829.38;;;12.92;100.00
39265;BME280;42646;51.910;7.724;2022-10-26T08:51:15;100823.44;;;12.98;100.00
39265;BME280;42646;51.910;7.724;2022-10-26T08:53:51;100822.88;;;13.04;100.00
39265;BME280;42646;51.910;7.724;2022-10-26T08:56:23;100823.78;;;13.13;100.00
39265;BME280;42646;51.910;7.724;2022-10-26T08:58:54;100819.00;;;13.17;100.00
39265;BME280;42646;51.910;7.724;2022-10-26T09:01:23;100821.09;;;13.23;100.00
39265;BME280;42646;51.910;7.724;2022-10-26T09:03:51;100815.97;;;13.29;100.00
39265;BME280;42646;51.910;7.724;2022-10-26T09:06:24;100812.53;;;13.37;100.00
39265;BME280;42646;51.910;7.724;2022-10-26T09:09:02;100813.44;;;13.46;100.00
39265;BME280;42646;51.910;7.724;2022-10-26T09:11:45;100803.53;;;13.56;100.00
39265;BME280;42646;51.910;7.724;2022-10-26T09:14:20;100803.44;;;13.66;100.00
39265;BME280;42646;51.910;7.724;2022-10-26T09:17:01;100813.91;;;13.77;100.00
39265;BME280;42646;51.910;7.724;2022-10-26T09:19:45;100812.94;;;13.86;100.00
39265;BME280;42646;51.910;7.724;2022-10-26T09:22:19;100821.06;;;13.94;100.00
39265;BME280;42646;51.910;7.724;2022-10-26T09:24:54;100824.78;;;14.01;100.00
39265;BME280;42646;51.910;7.724;2022-10-26T09:27:25;100842.53;;;14.10;100.00
39265;BME280;42646;51.910;7.724;2022-10-26T09:29:54;100848.28;;;14.15;100.00
39265;BME280;42646;51.910;7.724;2022-10-26T09:32:26;100852.31;;;14.20;100.00
39265;BME280;42646;51.910;7.724;2022-10-26T09:34:58;100852.69;;;14.25;100.00
39265;BME280;42646;51.910;7.724;2022-10-26T09:37:31;100852.06;;;14.31;100.00
39265;BME280;42646;51.910;7.724;2022-10-26T09:40:10;100854.63;;;14.40;100.00
39265;BME280;42646;51.910;7.724;2022-10-26T09:42:42;100869.78;;;14.50;100.00
39265;BME280;42646;51.910;7.724;2022-10-26T09:45:16;100874.03;;;14.60;100.00
39265;BME280;42646;51.910;7.724;2022-10-26T09:47:49;100866.03;;;14.68;100.00
39265;BME280;42646;51.910;7.724;2022-10-26T09:50:22;100866.06;;;14.77;100.00
39265;BME280;42646;51.910;7.724;2022-10-26T09:52:51;100867.41;;;14.81;100.00
39265;BME280;42646;51.910;7.724;2022-10-26T09:55:20;100869.31;;;14.88;100.00
39265;BME280;42646;51.910;7.724;2022-10-26T09:57:51;100868.03;;;15.01;100.00
39265;BME280;42646;51.910;7.724;2022-10-26T10:00:21;100862.03;;;15.15;100.00
39265;BME280;42646;51.910;7.724;2022-10-26T10:02:51;100873.94;;;15.20;100.00
39265;BME280;42646;51.910;7.724;2022-10-26T10:05:26;100874.78;;;15.29;100.00
39265;BME280;42646;51.910;7.724;2022-10-26T10:08:17;100877.03;;;15.42;100.00
39265;BME280;42646;51.910;7.724;2022-10-26T10:10:57;100883.06;;;15.52;100.00
39265;BME280;42646;51.910;7.724;2022-10-26T10:13:27;100885.13;;;15.66;100.00
39265;BME280;42646;51.910;7.724;2022-10-26T10:16:01;100889.47;;;15.75;100.00
39265;BME280;42646;51.910;7.724;2022-10-26T10:18:30;100903.41;;;15.87;100.00
39265;BME280;42646;51.910;7.724;2022-10-26T10:20:58;100909.28;;;15.99;100.00
39265;BME280;42646;51.910;7.724;2022-10-26T10:23:29;100894.03;;;16.08;100.00
39265;BME280;42646;51.910;7.724;2022-10-26T10:26:00;100906.63;;;16.15;100.00
39265;BME280;42646;51.910;7.724;2022-10-26T10:28:28;100911.97;;;16.23;100.00
39265;BME280;42646;51.910;7.724;2022-10-26T10:30:57;100903.91;;;16.32;100.00
39265;BME280;42646;51.910;7.724;2022-10-26T10:33:34;100914.31;;;16.43;100.00
39265;BME280;42646;51.910;7.724;2022-10-26T10:36:05;100914.13;;;16.52;100.00
39265;BME280;42646;51.910;7.724;2022-10-26T10:38:39;100910.56;;;16.60;100.00
39265;BME280;42646;51.910;7.724;2022-10-26T10:41:16;100916.78;;;16.69;100.00
39265;BME280;42646;51.910;7.724;2022-10-26T10:43:46;100923.31;;;16.82;100.00
39265;BME280;42646;51.910;7.724;2022-10-26T10:46:23;100914.69;;;16.95;100.00
39265;BME280;42646;51.910;7.724;2022-10-26T10:49:00;100917.50;;;17.10;100.00
39265;BME280;42646;51.910;7.724;2022-10-26T10:51:35;100911.94;;;17.20;100.00
39265;BME280;42646;51.910;7.724;2022-10-26T10:54:05;100918.09;;;17.28;100.00
39265;BME280;42646;51.910;7.724;2022-10-26T10:56:41;100913.50;;;17.37;100.00
39265;BME280;42646;51.910;7.724;2022-10-26T10:59:25;100924.25;;;17.45;100.00
39265;BME280;42646;51.910;7.724;2022-10-26T11:02:10;100923.34;;;17.53;98.20
39265;BME280;42646;51.910;7.724;2022-10-26T11:04:58;100925.44;;;17.66;98.00
39265;BME280;42646;51.910;7.724;2022-10-26T11:07:31;100921.53;;;17.76;97.24
39265;BME280;42646;51.910;7.724;2022-10-26T11:10:03;100926.34;;;17.89;96.37
39265;BME280;42646;51.910;7.724;2022-10-26T11:12:39;100930.16;;;17.95;95.45
39265;BME280;42646;51.910;7.724;2022-10-26T11:15:14;100929.75;;;18.06;93.88
39265;BME280;42646;51.910;7.724;2022-10-26T11:17:49;100930.69;;;18.13;93.39
39265;BME280;42646;51.910;7.724;2022-10-26T11:20:21;100931.47;;;18.22;93.31
39265;BME280;42646;51.910;7.724;2022-10-26T11:23:01;100924.69;;;18.26;93.42
39265;BME280;42646;51.910;7.724;2022-10-26T11:25:40;100921.44;;;18.30;93.35
39265;BME280;42646;51.910;7.724;2022-10-26T11:28:15;100926.28;;;18.35;92.59
39265;BME280;42646;51.910;7.724;2022-10-26T11:30:48;100921.22;;;18.40;92.79
39265;BME280;42646;51.910;7.724;2022-10-26T11:33:23;100915.63;;;18.41;92.32
39265;BME280;42646;51.910;7.724;2022-10-26T11:35:57;100923.25;;;18.53;91.04
39265;BME280;42646;51.910;7.724;2022-10-26T11:38:32;100919.94;;;18.51;89.75
39265;BME280;42646;51.910;7.724;2022-10-26T11:41:24;100919.34;;;18.55;87.99
39265;BME280;42646;51.910;7.724;2022-10-26T11:43:55;100921.22;;;18.55;89.04
39265;BME280;42646;51.910;7.724;2022-10-26T11:46:31;100923.06;;;18.54;89.09
39265;BME280;42646;51.910;7.724;2022-10-26T11:49:04;100922.25;;;18.54;88.46
39265;BME280;42646;51.910;7.724;2022-10-26T11:51:40;100915.47;;;18.58;88.80
39265;BME280;42646;51.910;7.724;2022-10-26T11:54:14;100920.47;;;18.61;88.00
39265;BME280;42646;51.910;7.724;2022-10-26T11:56:46;100920.97;;;18.64;88.16
39265;BME280;42646;51.910;7.724;2022-10-26T11:59:18;100933.25;;;18.67;87.42
39265;BME280;42646;51.910;7.724;2022-10-26T12:01:50;100931.53;;;18.66;88.21
39265;BME280;42646;51.910;7.724;2022-10-26T12:04:21;100934.94;;;18.68;88.16
39265;BME280;42646;51.910;7.724;2022-10-26T12:06:51;100933.09;;;18.68;87.77
39265;BME280;42646;51.910;7.724;2022-10-26T12:09:24;100934.56;;;18.71;86.86
39265;BME280;42646;51.910;7.724;2022-10-26T12:12:03;100940.44;;;18.75;87.20
39265;BME280;42646;51.910;7.724;2022-10-26T12:14:38;100937.53;;;18.76;86.67
39265;BME280;42646;51.910;7.724;2022-10-26T12:17:13;100948.81;;;18.80;86.07
39265;BME280;42646;51.910;7.724;2022-10-26T12:19:46;100955.47;;;18.84;85.74
39265;BME280;42646;51.910;7.724;2022-10-26T12:22:18;100959.69;;;18.86;85.79
39265;BME280;42646;51.910;7.724;2022-10-26T12:25:04;100959.09;;;18.91;85.65
39265;BME280;42646;51.910;7.724;2022-10-26T12:27:53;100977.81;;;18.92;85.36
39265;BME280;42646;51.910;7.724;2022-10-26T12:30:26;100984.50;;;18.97;85.01
39265;BME280;42646;51.910;7.724;2022-10-26T12:32:56;100977.63;;;18.94;85.37
39265;BME280;42646;51.910;7.724;2022-10-26T12:35:36;100981.78;;;18.97;86.01
39265;BME280;42646;51.910;7.724;2022-10-26T12:41:19;100979.78;;;18.99;85.39
39265;BME280;42646;51.910;7.724;2022-10-26T12:43:47;100987.47;;;19.02;85.10
39265;BME280;42646;51.910;7.724;2022-10-26T12:46:40;100992.50;;;19.05;85.47
39265;BME280;42646;51.910;7.724;2022-10-26T12:55:46;100994.53;;;19.03;85.16
39265;BME280;42646;51.910;7.724;2022-10-26T13:01:39;100996.69;;;19.07;84.32
39265;BME280;42646;51.910;7.724;2022-10-26T13:04:25;101000.88;;;19.10;84.43
39265;BME280;42646;51.910;7.724;2022-10-26T13:07:17;101007.41;;;19.15;83.47
39265;BME280;42646;51.910;7.724;2022-10-26T13:09:53;101014.81;;;19.13;83.84
39265;BME280;42646;51.910;7.724;2022-10-26T13:12:22;101016.31;;;19.16;83.61
39265;BME280;42646;51.910;7.724;2022-10-26T13:14:56;101022.56;;;19.16;83.83
39265;BME280;42646;51.910;7.724;2022-10-26T13:17:27;101019.94;;;19.23;83.08
39265;BME280;42646;51.910;7.724;2022-10-26T13:19:59;101017.44;;;19.21;83.34
39265;BME280;42646;51.910;7.724;2022-10-26T13:22:29;101023.66;;;19.22;83.75
39265;BME280;42646;51.910;7.724;2022-10-26T13:24:59;101013.31;;;19.26;84.03